createdAt,value
2018-03-06T00:00:12.588Z,94.80
2018-03-06T00:02:40.129Z,94.80
2018-03-06T00:05:07.702Z,94.90
2018-03-06T00:07:35.262Z,95.10
2018-03-06T00:10:03.589Z,95.30
2018-03-06T00:12:31.135Z,95.30
2018-03-06T00:14:58.704Z,95.40
2018-03-06T00:17:27.005Z,95.60
2018-03-06T00:19:54.579Z,95.60
2018-03-06T00:22:22.135Z,95.70
2018-03-06T00:24:49.722Z,95.90
2018-03-06T00:27:17.256Z,96.00
2018-03-06T00:29:44.832Z,95.90
2018-03-06T00:32:13.160Z,96.10
2018-03-06T00:34:40.718Z,96.10
2018-03-06T00:37:08.268Z,96.00
2018-03-06T00:39:35.842Z,96.30
2018-03-06T00:42:04.153Z,96.50
2018-03-06T00:44:31.726Z,96.60
2018-03-06T00:47:00.033Z,96.80
2018-03-06T00:49:27.597Z,96.80
2018-03-06T00:51:55.139Z,96.90
2018-03-06T00:54:23.481Z,97.10
2018-03-06T00:56:51.017Z,97.10
2018-03-06T00:59:19.344Z,97.00
2018-03-06T01:01:46.884Z,97.00
2018-03-06T01:04:14.457Z,97.00
2018-03-06T01:06:42.004Z,97.10
2018-03-06T01:09:09.568Z,97.10
2018-03-06T01:11:37.103Z,96.90
2018-03-06T01:14:04.665Z,96.90
2018-03-06T01:16:32.225Z,96.80
2018-03-06T01:18:59.793Z,96.80
2018-03-06T01:21:27.325Z,97.00
2018-03-06T01:23:54.900Z,97.10
2018-03-06T01:26:22.442Z,97.10
2018-03-06T01:28:50.006Z,97.00
2018-03-06T01:31:17.549Z,97.00
2018-03-06T01:33:45.122Z,97.50
2018-03-06T01:36:13.424Z,97.80
2018-03-06T01:38:40.997Z,97.80
2018-03-06T01:41:08.543Z,97.60
2018-03-06T01:43:36.125Z,97.50
2018-03-06T01:46:03.650Z,97.40
2018-03-06T01:48:31.224Z,97.10
2018-03-06T01:50:58.765Z,97.00
2018-03-06T01:53:26.340Z,96.90
2018-03-06T01:55:53.876Z,96.90
2018-03-06T01:58:22.217Z,96.60
2018-03-06T02:00:49.865Z,96.60
2018-03-06T02:03:17.441Z,96.80
2018-03-06T02:05:44.984Z,96.80
2018-03-06T02:08:12.566Z,96.90
2018-03-06T02:10:40.869Z,96.90
2018-03-06T02:13:08.451Z,96.90
2018-03-06T02:15:35.987Z,96.90
2018-03-06T02:18:03.557Z,96.90
2018-03-06T02:20:31.096Z,97.20
2018-03-06T02:22:58.672Z,97.00
2018-03-06T02:25:26.213Z,97.20
2018-03-06T02:27:53.780Z,97.50
2018-03-06T02:30:21.312Z,98.00
2018-03-06T02:35:40.279Z,98.90
2018-03-06T02:38:07.844Z,99.80
2018-03-06T02:40:35.381Z,99.70
2018-03-06T02:43:03.729Z,99.40
2018-03-06T02:45:31.265Z,99.40
2018-03-06T02:47:58.843Z,99.10
2018-03-06T02:50:26.382Z,98.90
2018-03-06T02:52:53.947Z,98.60
2018-03-06T02:55:21.493Z,98.90
2018-03-06T02:57:49.053Z,99.00
2018-03-06T03:00:16.587Z,99.40
2018-03-06T03:02:44.929Z,99.90
2018-03-06T03:05:12.490Z,99.90
2018-03-06T03:07:40.068Z,99.90
2018-03-06T03:10:07.612Z,99.90
2018-03-06T03:12:35.188Z,99.90
2018-03-06T03:15:02.752Z,99.90
2018-03-06T03:17:30.328Z,99.90
2018-03-06T03:19:57.876Z,99.90
2018-03-06T03:22:26.224Z,99.90
2018-03-06T03:24:53.756Z,99.90
2018-03-06T03:27:21.337Z,99.90
2018-03-06T03:29:48.888Z,99.70
2018-03-06T03:32:17.223Z,98.80
2018-03-06T03:34:44.765Z,98.70
2018-03-06T03:37:13.095Z,98.10
2018-03-06T03:39:40.620Z,98.10
2018-03-06T03:42:08.168Z,97.70
2018-03-06T03:44:35.754Z,97.70
2018-03-06T03:47:04.058Z,97.80
2018-03-06T03:49:32.408Z,97.60
2018-03-06T03:51:59.966Z,97.60
2018-03-06T03:54:27.556Z,97.50
2018-03-06T03:56:55.088Z,97.40
2018-03-06T03:59:22.659Z,97.40
2018-03-06T04:01:50.199Z,96.90
2018-03-06T04:04:18.561Z,96.40
2018-03-06T04:06:46.094Z,96.40
2018-03-06T04:09:13.678Z,96.30
2018-03-06T04:11:41.216Z,96.00
2018-03-06T04:14:09.581Z,96.00
2018-03-06T04:16:37.138Z,96.00
2018-03-06T04:19:04.701Z,96.00
2018-03-06T04:21:32.253Z,96.10
2018-03-06T04:23:59.828Z,96.10
2018-03-06T04:26:27.367Z,96.00
2018-03-06T04:28:54.944Z,95.80
2018-03-06T04:31:23.264Z,95.60
2018-03-06T04:33:50.824Z,95.60
2018-03-06T04:36:18.368Z,95.50
2018-03-06T04:38:45.941Z,95.50
2018-03-06T04:41:14.261Z,95.50
2018-03-06T04:43:41.860Z,95.50
2018-03-06T04:46:09.394Z,95.60
2018-03-06T04:48:36.966Z,95.60
2018-03-06T04:51:04.513Z,95.40
2018-03-06T04:53:32.087Z,95.50
2018-03-06T04:55:59.624Z,95.60
2018-03-06T04:58:27.193Z,95.50
2018-03-06T05:00:54.733Z,95.50
2018-03-06T05:03:22.306Z,95.50
2018-03-06T05:05:49.850Z,95.80
2018-03-06T05:08:17.419Z,95.80
2018-03-06T05:10:44.957Z,95.70
2018-03-06T05:13:12.528Z,95.90
2018-03-06T05:15:40.067Z,95.80
2018-03-06T05:18:07.649Z,95.70
2018-03-06T05:20:35.193Z,95.60
2018-03-06T05:23:03.510Z,96.40
2018-03-06T05:25:31.083Z,96.40
2018-03-06T05:27:58.642Z,96.60
2018-03-06T05:30:26.237Z,96.60
2018-03-06T05:32:53.779Z,96.40
2018-03-06T05:35:21.357Z,96.20
2018-03-06T05:37:49.678Z,95.90
2018-03-06T05:40:17.248Z,95.90
2018-03-06T05:42:44.791Z,95.80
2018-03-06T05:45:12.370Z,95.70
2018-03-06T05:47:39.915Z,95.80
2018-03-06T05:50:07.541Z,95.80
2018-03-06T05:52:35.026Z,96.00
2018-03-06T05:55:02.601Z,95.70
2018-03-06T05:57:30.140Z,95.80
2018-03-06T05:59:57.730Z,95.40
2018-03-06T06:02:25.292Z,95.30
2018-03-06T06:04:52.873Z,95.30
2018-03-06T06:07:20.433Z,95.50
2018-03-06T06:09:47.992Z,95.30
2018-03-06T06:12:15.541Z,95.20
2018-03-06T06:14:43.872Z,95.20
2018-03-06T06:17:11.396Z,95.20
2018-03-06T06:19:38.949Z,95.00
2018-03-06T06:22:06.470Z,95.20
2018-03-06T06:24:34.822Z,95.30
2018-03-06T06:27:02.332Z,95.30
2018-03-06T06:29:29.904Z,95.50
2018-03-06T06:31:57.428Z,95.50
2018-03-06T06:34:25.001Z,95.70
2018-03-06T06:36:52.526Z,95.20
2018-03-06T06:39:20.085Z,95.00
2018-03-06T06:41:47.600Z,94.90
2018-03-06T06:44:15.152Z,94.70
2018-03-06T06:46:42.679Z,94.70
2018-03-06T06:49:10.228Z,94.50
2018-03-06T06:51:37.874Z,94.50
2018-03-06T06:54:06.353Z,94.40
2018-03-06T06:56:34.641Z,94.20
2018-03-06T06:59:02.956Z,94.10
2018-03-06T07:01:30.495Z,94.10
2018-03-06T07:03:58.058Z,94.10
2018-03-06T07:06:25.576Z,94.00
2018-03-06T07:08:53.141Z,93.60
2018-03-06T07:11:20.657Z,93.50
2018-03-06T07:13:48.209Z,93.30
2018-03-06T07:16:15.789Z,93.40
2018-03-06T07:18:43.471Z,93.40
2018-03-06T07:21:11.015Z,93.30
2018-03-06T07:23:38.557Z,93.30
2018-03-06T07:26:06.837Z,93.30
2018-03-06T07:28:34.391Z,93.30
2018-03-06T07:31:01.904Z,93.10
2018-03-06T07:33:30.247Z,93.00
2018-03-06T07:35:57.769Z,93.00
2018-03-06T07:38:25.288Z,93.10
2018-03-06T07:40:52.839Z,92.70
2018-03-06T07:43:20.356Z,92.50
2018-03-06T07:45:47.900Z,91.80
2018-03-06T07:48:15.414Z,91.60
2018-03-06T07:50:43.738Z,90.80
2018-03-06T07:53:11.269Z,90.80
2018-03-06T07:55:39.591Z,90.70
2018-03-06T07:58:07.113Z,90.60
2018-03-06T08:00:34.677Z,90.30
2018-03-06T08:03:03.793Z,90.10
2018-03-06T08:05:31.343Z,90.10
2018-03-06T08:07:58.868Z,89.90
2018-03-06T08:10:27.189Z,90.10
2018-03-06T08:12:54.704Z,90.10
2018-03-06T08:15:22.260Z,90.50
2018-03-06T08:17:49.806Z,90.30
2018-03-06T08:20:17.363Z,90.10
2018-03-06T08:22:44.882Z,89.90
2018-03-06T08:25:12.442Z,89.80
2018-03-06T08:27:39.964Z,89.50
2018-03-06T08:30:08.276Z,88.30
2018-03-06T08:32:35.803Z,87.60
2018-03-06T08:35:03.363Z,87.30
2018-03-06T08:37:30.896Z,85.50
2018-03-06T08:39:58.457Z,81.90
2018-03-06T08:42:25.980Z,79.30
2018-03-06T08:44:53.566Z,77.90
2018-03-06T08:47:21.079Z,76.60
2018-03-06T08:49:48.644Z,77.20
2018-03-06T08:52:16.170Z,74.70
2018-03-06T08:54:43.729Z,70.60
2018-03-06T08:57:11.297Z,70.80
2018-03-06T08:59:38.844Z,72.70
2018-03-06T09:02:06.368Z,71.50
2018-03-06T09:04:33.933Z,70.30
2018-03-06T09:07:01.464Z,69.70
2018-03-06T09:09:29.015Z,72.00
2018-03-06T09:11:57.320Z,69.50
2018-03-06T09:14:24.893Z,69.50
2018-03-06T09:16:52.422Z,63.80
2018-03-06T09:19:19.981Z,59.80
2018-03-06T09:21:47.507Z,58.70
2018-03-06T09:24:15.081Z,59.50
2018-03-06T09:26:42.610Z,57.30
2018-03-06T09:29:10.173Z,57.40
2018-03-06T09:31:37.700Z,59.00
2018-03-06T09:34:05.263Z,59.80
2018-03-06T09:36:32.788Z,61.70
2018-03-06T09:39:00.361Z,61.00
2018-03-06T09:41:27.876Z,57.00
2018-03-06T09:43:55.448Z,56.00
2018-03-06T09:46:23.745Z,54.80
2018-03-06T09:48:51.309Z,54.70
2018-03-06T09:51:18.842Z,53.80
2018-03-06T09:53:46.394Z,52.80
2018-03-06T09:56:13.916Z,53.70
2018-03-06T09:58:41.732Z,53.90
2018-03-06T10:01:09.272Z,55.30
2018-03-06T10:03:37.678Z,55.20
2018-03-06T10:06:05.234Z,55.20
2018-03-06T10:08:33.626Z,52.20
2018-03-06T10:11:01.966Z,52.20
2018-03-06T10:13:29.520Z,52.20
2018-03-06T10:15:57.069Z,52.90
2018-03-06T10:18:24.605Z,53.90
2018-03-06T10:20:52.170Z,53.20
2018-03-06T10:23:19.714Z,51.90
2018-03-06T10:25:47.288Z,52.10
2018-03-06T10:28:14.817Z,51.40
2018-03-06T10:30:43.148Z,53.30
2018-03-06T10:33:10.692Z,53.20
2018-03-06T10:35:38.297Z,52.20
2018-03-06T10:38:05.827Z,51.00
2018-03-06T10:40:34.152Z,52.80
2018-03-06T10:43:01.681Z,52.80
2018-03-06T10:45:29.242Z,53.80
2018-03-06T10:47:56.768Z,53.70
2018-03-06T10:50:24.324Z,52.60
2018-03-06T10:52:51.860Z,52.00
2018-03-06T10:55:19.435Z,51.40
2018-03-06T10:57:46.966Z,50.10
2018-03-06T11:00:14.497Z,50.10
2018-03-06T11:02:42.821Z,48.60
2018-03-06T11:05:10.356Z,48.50
2018-03-06T11:07:38.716Z,49.20
2018-03-06T11:10:06.261Z,49.20
2018-03-06T11:12:33.838Z,51.00
2018-03-06T11:15:01.389Z,51.70
2018-03-06T11:17:28.948Z,49.80
2018-03-06T11:19:57.249Z,50.40
2018-03-06T11:22:24.815Z,50.30
2018-03-06T11:24:52.345Z,50.50
2018-03-06T11:27:19.905Z,51.20
2018-03-06T11:29:47.434Z,51.80
2018-03-06T11:32:14.987Z,52.00
2018-03-06T11:34:43.285Z,53.20
2018-03-06T11:37:11.606Z,53.50
2018-03-06T11:39:39.148Z,53.50
2018-03-06T11:42:07.480Z,54.20
2018-03-06T11:44:35.016Z,54.20
2018-03-06T11:47:03.336Z,55.00
2018-03-06T11:49:30.861Z,55.00
2018-03-06T11:51:59.182Z,55.90
2018-03-06T11:54:26.718Z,55.90
2018-03-06T11:56:55.052Z,55.20
2018-03-06T11:59:22.572Z,55.20
2018-03-06T12:01:50.133Z,54.20
2018-03-06T12:04:17.669Z,53.90
2018-03-06T12:06:45.234Z,55.10
2018-03-06T12:09:12.762Z,54.90
2018-03-06T12:11:41.108Z,55.00
2018-03-06T12:14:08.670Z,54.40
2018-03-06T12:16:36.242Z,54.40
2018-03-06T12:19:03.769Z,55.00
2018-03-06T12:21:31.335Z,54.90
2018-03-06T12:23:58.876Z,54.80
2018-03-06T12:26:26.433Z,54.30
2018-03-06T12:28:53.950Z,54.50
2018-03-06T12:31:21.515Z,54.90
2018-03-06T12:33:49.046Z,54.70
2018-03-06T12:36:16.800Z,54.20
2018-03-06T12:38:45.097Z,54.80
2018-03-06T12:41:13.409Z,54.70
2018-03-06T12:43:40.955Z,54.80
2018-03-06T12:46:09.285Z,53.60
2018-03-06T12:48:36.807Z,53.60
2018-03-06T12:51:05.125Z,53.40
2018-03-06T12:53:32.674Z,53.40
2018-03-06T12:56:00.244Z,54.00
2018-03-06T12:58:27.767Z,52.70
2018-03-06T13:00:55.347Z,53.50
2018-03-06T13:03:22.920Z,53.50
2018-03-06T13:05:50.473Z,53.40
2018-03-06T13:08:18.031Z,53.30
2018-03-06T13:10:45.592Z,52.80
2018-03-06T13:13:13.121Z,53.10
2018-03-06T13:15:40.679Z,53.40
2018-03-06T13:18:08.211Z,53.20
2018-03-06T13:20:35.769Z,53.50
2018-03-06T13:23:03.292Z,53.40
2018-03-06T13:25:30.855Z,54.20
2018-03-06T13:27:58.389Z,53.70
2018-03-06T13:30:26.714Z,55.20
2018-03-06T13:32:54.255Z,55.20
2018-03-06T13:35:21.814Z,55.60
2018-03-06T13:37:49.340Z,55.90
2018-03-06T13:40:16.998Z,55.50
2018-03-06T13:42:44.569Z,55.60
2018-03-06T13:45:12.152Z,56.40
2018-03-06T13:47:39.675Z,56.80
2018-03-06T13:50:07.204Z,56.60
2018-03-06T13:52:34.782Z,56.10
2018-03-06T13:55:03.073Z,57.00
2018-03-06T13:57:30.641Z,57.00
2018-03-06T13:59:58.174Z,57.00
2018-03-06T14:02:25.750Z,57.50
2018-03-06T14:04:53.289Z,57.10
2018-03-06T14:07:20.864Z,56.80
2018-03-06T14:09:48.392Z,57.10
2018-03-06T14:12:15.949Z,56.90
2018-03-06T14:14:43.473Z,56.60
2018-03-06T14:17:11.064Z,56.30
2018-03-06T14:19:38.589Z,56.30
2018-03-06T14:22:06.152Z,56.80
2018-03-06T14:24:34.083Z,57.30
2018-03-06T14:27:01.654Z,57.10
2018-03-06T14:29:29.222Z,58.30
2018-03-06T14:31:56.781Z,57.70
2018-03-06T14:34:24.342Z,57.20
2018-03-06T14:36:51.868Z,57.70
2018-03-06T14:39:20.173Z,58.00
2018-03-06T14:41:47.733Z,58.00
2018-03-06T14:44:15.260Z,57.60
2018-03-06T14:46:42.817Z,58.00
2018-03-06T14:49:10.377Z,57.40
2018-03-06T14:51:37.896Z,57.80
2018-03-06T14:54:05.452Z,57.70
2018-03-06T14:56:32.999Z,58.10
2018-03-06T14:59:00.564Z,57.80
2018-03-06T15:01:28.084Z,58.00
2018-03-06T15:03:55.641Z,58.20
2018-03-06T15:06:23.175Z,57.90
2018-03-06T15:08:50.754Z,58.00
2018-03-06T15:11:18.276Z,58.10
2018-03-06T15:13:46.606Z,58.60
2018-03-06T15:16:14.145Z,58.60
2018-03-06T15:18:42.477Z,59.60
2018-03-06T15:21:10.018Z,59.60
2018-03-06T15:23:38.341Z,60.60
2018-03-06T15:26:05.880Z,60.60
2018-03-06T15:28:34.197Z,61.20
2018-03-06T15:31:01.715Z,61.20
2018-03-06T15:33:29.269Z,61.50
2018-03-06T15:35:56.808Z,61.60
2018-03-06T15:38:24.373Z,61.70
2018-03-06T15:40:51.933Z,61.80
2018-03-06T15:43:20.302Z,62.00
2018-03-06T15:45:47.886Z,62.00
2018-03-06T15:48:16.241Z,62.10
2018-03-06T15:50:43.826Z,62.10
2018-03-06T15:53:11.405Z,62.50
2018-03-06T15:55:39.009Z,62.50
2018-03-06T15:58:06.578Z,62.30
2018-03-06T16:00:34.929Z,62.80
2018-03-06T16:03:02.521Z,62.90
2018-03-06T16:05:30.118Z,63.10
2018-03-06T16:07:58.441Z,63.80
2018-03-06T16:10:26.032Z,63.80
2018-03-06T16:12:53.641Z,64.30
2018-03-06T16:15:21.222Z,64.80
2018-03-06T16:17:48.786Z,65.20
2018-03-06T16:20:17.145Z,66.00
2018-03-06T16:22:44.706Z,66.00
2018-03-06T16:25:13.073Z,66.80
2018-03-06T16:27:40.640Z,66.80
2018-03-06T16:30:08.259Z,67.20
2018-03-06T16:32:35.820Z,67.40
2018-03-06T16:35:03.410Z,67.70
2018-03-06T16:37:30.978Z,68.10
2018-03-06T16:39:58.575Z,68.40
2018-03-06T16:42:26.137Z,69.10
2018-03-06T16:44:53.737Z,69.20
2018-03-06T16:47:22.054Z,70.10
2018-03-06T16:49:49.649Z,70.10
2018-03-06T16:52:17.218Z,70.50
2018-03-06T16:54:44.813Z,71.80
2018-03-06T16:57:12.690Z,74.30
2018-03-06T16:59:40.276Z,76.50
2018-03-06T17:02:07.851Z,78.60
2018-03-06T17:04:35.443Z,80.80
2018-03-06T17:07:03.017Z,82.10
2018-03-06T17:09:31.384Z,84.00
2018-03-06T17:11:58.968Z,83.90
2018-03-06T17:14:26.556Z,86.10
2018-03-06T17:16:54.873Z,88.90
2018-03-06T17:19:22.462Z,88.80
2018-03-06T17:21:50.117Z,88.80
2018-03-06T17:24:17.698Z,89.30
2018-03-06T17:26:45.245Z,89.40
2018-03-06T17:29:12.870Z,89.10
2018-03-06T17:31:40.432Z,89.60
2018-03-06T17:34:08.022Z,89.40
2018-03-06T17:36:35.586Z,90.00
2018-03-06T17:39:03.198Z,90.20
2018-03-06T17:41:31.527Z,90.40
2018-03-06T17:43:59.110Z,90.40
2018-03-06T17:46:26.663Z,90.50
2018-03-06T17:48:54.258Z,90.50
2018-03-06T17:51:21.821Z,90.70
2018-03-06T17:53:49.410Z,90.80
2018-03-06T17:56:16.974Z,91.20
2018-03-06T17:58:44.601Z,91.40
2018-03-06T18:01:12.929Z,91.60
2018-03-06T18:03:40.522Z,91.60
2018-03-06T18:06:08.077Z,91.90
2018-03-06T18:08:35.665Z,91.70
2018-03-06T18:11:03.266Z,91.70
2018-03-06T18:13:30.816Z,91.90
2018-03-06T18:15:58.415Z,91.90
2018-03-06T18:18:25.964Z,92.00
2018-03-06T18:20:53.567Z,92.00
2018-03-06T18:23:21.128Z,91.90
2018-03-06T18:25:48.734Z,91.80
2018-03-06T18:28:16.293Z,91.60
2018-03-06T18:30:44.641Z,91.40
2018-03-06T18:33:12.196Z,91.40
2018-03-06T18:35:39.777Z,91.30
2018-03-06T18:38:07.334Z,91.50
2018-03-06T18:40:34.926Z,91.10
2018-03-06T18:43:02.477Z,91.30
2018-03-06T18:45:30.066Z,91.20
2018-03-06T18:47:57.622Z,91.10
2018-03-06T18:50:37.084Z,91.10
2018-03-06T18:53:04.653Z,90.90
2018-03-06T18:55:32.261Z,90.80
2018-03-06T18:58:01.013Z,90.80
2018-03-06T19:03:53.992Z,90.80
2018-03-06T19:06:42.305Z,90.80
2018-03-06T19:09:10.680Z,91.20
2018-03-06T19:11:38.241Z,91.00
2018-03-06T19:14:05.829Z,91.10
2018-03-06T19:16:33.379Z,91.40
2018-03-06T19:19:00.962Z,91.50
2018-03-06T19:21:28.522Z,91.60
2018-03-06T19:23:56.883Z,92.10
2018-03-06T19:26:24.434Z,92.10
2018-03-06T19:28:52.014Z,92.60
2018-03-06T19:31:19.564Z,92.50
2018-03-06T19:33:47.119Z,92.40
2018-03-06T19:36:14.637Z,92.50
2018-03-06T19:38:42.188Z,92.50
2018-03-06T19:41:09.701Z,92.50
2018-03-06T19:43:37.259Z,92.70
2018-03-06T19:46:04.797Z,93.00
2018-03-06T19:48:32.346Z,93.10
2018-03-06T19:50:59.873Z,93.20
2018-03-06T19:53:27.461Z,93.40
2018-03-06T19:55:55.003Z,93.70
2018-03-06T19:58:22.552Z,93.90
2018-03-06T20:00:50.140Z,94.30
2018-03-06T20:03:17.691Z,95.00
2018-03-06T20:05:45.212Z,95.60
2018-03-06T20:08:12.784Z,95.70
2018-03-06T20:10:40.300Z,96.10
2018-03-06T20:13:07.877Z,97.10
2018-03-06T20:15:35.392Z,97.30
2018-03-06T20:18:02.941Z,97.60
2018-03-06T20:20:30.458Z,97.30
2018-03-06T20:22:58.780Z,97.80
2018-03-06T20:25:32.685Z,97.50
2018-03-06T20:28:01.021Z,98.10
2018-03-06T20:30:34.333Z,98.10
2018-03-06T20:33:07.541Z,98.20
2018-03-06T20:35:35.063Z,98.10
2018-03-06T20:38:03.381Z,98.00
2018-03-06T20:40:33.824Z,98.00
2018-03-06T20:43:01.389Z,98.20
2018-03-06T20:45:34.650Z,98.30
2018-03-06T20:48:02.208Z,98.50
2018-03-06T20:50:29.729Z,99.00
2018-03-06T20:53:03.065Z,98.90
2018-03-06T20:55:30.584Z,99.10
2018-03-06T20:57:58.176Z,99.20
2018-03-06T21:00:25.706Z,99.40
2018-03-06T21:02:53.271Z,99.40
2018-03-06T21:05:20.884Z,99.40
2018-03-06T21:07:49.193Z,99.50
2018-03-06T21:10:16.716Z,99.50
2018-03-06T21:12:44.265Z,99.60
2018-03-06T21:15:11.785Z,99.60
2018-03-06T21:17:40.105Z,99.90
2018-03-06T21:20:08.333Z,99.90
2018-03-06T21:22:35.880Z,99.80
2018-03-06T21:25:03.453Z,99.90
2018-03-06T21:27:30.992Z,99.80
2018-03-06T21:29:58.500Z,99.90
2018-03-06T21:32:26.053Z,99.90
2018-03-06T21:34:53.596Z,99.90
2018-03-06T21:37:21.913Z,99.90
2018-03-06T21:39:49.435Z,99.90
2018-03-06T21:42:17.009Z,99.90
2018-03-06T21:44:44.529Z,99.90
2018-03-06T21:47:12.081Z,99.90
2018-03-06T21:49:39.616Z,99.90
2018-03-06T21:52:07.164Z,99.90
2018-03-06T21:54:34.692Z,99.90
2018-03-06T21:57:03.008Z,99.90
2018-03-06T21:59:30.525Z,99.90
2018-03-06T22:01:58.080Z,99.90
2018-03-06T22:04:25.601Z,99.90
2018-03-06T22:06:53.155Z,99.90
2018-03-06T22:09:20.692Z,99.90
2018-03-06T22:11:48.245Z,99.90
2018-03-06T22:14:15.768Z,99.90
2018-03-06T22:16:43.329Z,99.90
2018-03-06T22:19:10.845Z,99.90
2018-03-06T22:21:38.392Z,99.90
2018-03-06T22:24:05.909Z,99.90
2018-03-06T22:26:33.468Z,99.90
2018-03-06T22:29:00.989Z,99.90
2018-03-06T22:31:28.556Z,99.90
2018-03-06T22:33:56.082Z,99.90
2018-03-06T22:36:23.638Z,99.90
2018-03-06T22:38:51.921Z,99.90
2018-03-06T22:41:20.244Z,99.90
2018-03-06T22:43:47.768Z,99.90
2018-03-06T22:46:15.332Z,99.90
2018-03-06T22:48:42.850Z,99.90
2018-03-06T22:51:10.415Z,99.90
2018-03-06T22:53:37.932Z,99.90
2018-03-06T22:56:05.490Z,99.90
2018-03-06T22:58:33.014Z,99.90
2018-03-06T23:01:01.331Z,99.90
2018-03-06T23:03:28.850Z,99.90
2018-03-06T23:05:56.412Z,99.90
2018-03-06T23:08:25.362Z,99.90
2018-03-06T23:10:52.905Z,99.90
2018-03-06T23:13:20.429Z,99.90
2018-03-06T23:15:47.992Z,99.90
2018-03-06T23:18:15.516Z,99.90
2018-03-06T23:20:43.064Z,99.90
2018-03-06T23:23:10.581Z,99.90
2018-03-06T23:25:38.134Z,99.90
2018-03-06T23:28:05.660Z,99.90
2018-03-06T23:30:33.209Z,99.90
2018-03-06T23:33:00.734Z,99.90
2018-03-06T23:35:28.284Z,99.90
2018-03-06T23:37:55.798Z,99.90
2018-03-06T23:40:23.349Z,99.90
2018-03-06T23:42:50.869Z,99.90
2018-03-06T23:45:19.148Z,99.90
2018-03-06T23:47:47.460Z,99.90
2018-03-06T23:50:15.013Z,99.90
2018-03-06T23:52:43.301Z,99.90
2018-03-06T23:55:11.584Z,99.90
2018-03-06T23:57:39.072Z,99.90
